Time,TemperatureF,DewpointF,PressureIn,WindDirection,WindDirectionDegrees,WindSpeedMPH,WindSpeedGustMPH,Humidity,HourlyPrecipIn,Conditions,Clouds,dailyrainin,SoftwareType,DateUTC
2013-09-03 00:00:00,70.7,69.6,29.70,ESE,109,0.5,1.9,96,0.00,n/a,n/a,-99.99,Henriksen +1-Wire,2013-09-03 04:00:00,
2013-09-03 00:02:00,70.8,69.7,29.70,SSW,203,0.8,1.9,96,0.00,n/a,n/a,-99.99,Henriksen +1-Wire,2013-09-03 04:02:00,
2013-09-03 00:04:00,70.9,69.9,29.70,South,182,0.8,2.2,96,0.00,n/a,n/a,-99.99,Henriksen +1-Wire,2013-09-03 04:04:00,
2013-09-03 00:08:00,71.1,70.1,29.70,South,179,1.8,3.2,96,0.00,n/a,n/a,-99.99,Henriksen +1-Wire,2013-09-03 04:08:00,
2013-09-03 00:12:00,71.3,70.3,29.70,South,180,2.6,6.0,96,0.00,n/a,n/a,-99.99,Henriksen +1-Wire,2013-09-03 04:12:00,
2013-09-03 00:16:00,71.5,70.4,29.70,South,181,1.7,6.0,96,0.00,n/a,n/a,-99.99,Henriksen +1-Wire,2013-09-03 04:16:00,
2013-09-03 00:22:00,71.6,70.5,29.70,SSE,151,2.1,3.7,96,0.00,n/a,n/a,-99.99,Henriksen +1-Wire,2013-09-03 04:22:00,
2013-09-03 00:28:00,71.7,70.6,29.70,SSE,162,3.1,6.0,96,0.00,n/a,n/a,-99.99,Henriksen +1-Wire,2013-09-03 04:28:00,
2013-09-03 00:34:00,71.7,70.6,29.69,SSE,159,2.1,6.0,96,0.00,n/a,n/a,-99.99,Henriksen +1-Wire,2013-09-03 04:34:00,
2013-09-03 00:40:00,71.7,70.6,29.69,SSE,163,2.6,5.6,96,0.00,n/a,n/a,-99.99,Henriksen +1-Wire,2013-09-03 04:40:00,
2013-09-03 00:46:00,71.8,70.6,29.70,South,178,2.7,5.6,96,0.00,n/a,n/a,-99.99,Henriksen +1-Wire,2013-09-03 04:46:00,
2013-09-03 00:52:00,71.8,70.7,29.69,SSE,162,2.2,4.7,96,0.00,n/a,n/a,-99.99,Henriksen +1-Wire,2013-09-03 04:52:00,
2013-09-03 00:58:00,71.8,70.7,29.69,SSE,152,2.7,4.6,96,0.00,n/a,n/a,-99.99,Henriksen +1-Wire,2013-09-03 04:58:00,
2013-09-03 01:04:00,71.8,70.7,29.69,SSE,156,0.5,4.6,96,0.00,n/a,n/a,-99.99,Henriksen +1-Wire,2013-09-03 05:04:00,
2013-09-03 01:10:00,71.8,70.7,29.69,SSE,155,0.7,2.5,96,0.00,n/a,n/a,-99.99,Henriksen +1-Wire,2013-09-03 05:10:00,
2013-09-03 01:16:00,71.9,70.8,29.69,SE,126,2.6,4.1,96,0.00,n/a,n/a,-99.99,Henriksen +1-Wire,2013-09-03 05:16:00,
2013-09-03 01:22:00,71.9,70.8,29.68,ESE,106,2.6,4.1,96,0.00,n/a,n/a,-99.99,Henriksen +1-Wire,2013-09-03 05:22:00,
2013-09-03 01:28:00,71.9,70.8,29.67,ESE,115,2.9,4.2,96,0.00,n/a,n/a,-99.99,Henriksen +1-Wire,2013-09-03 05:28:00,
2013-09-03 01:34:00,71.9,70.7,29.67,ESE,103,1.5,6.2,95,0.00,n/a,n/a,-99.99,Henriksen +1-Wire,2013-09-03 05:34:00,
2013-09-03 01:40:00,71.9,70.7,29.67,ESE,107,0.0,6.2,95,0.00,n/a,n/a,-99.99,Henriksen +1-Wire,2013-09-03 05:40:00,
2013-09-03 01:46:00,71.9,70.7,29.67,WNW,286,0.0,2.2,95,0.00,n/a,n/a,-99.99,Henriksen +1-Wire,2013-09-03 05:46:00,
2013-09-03 01:52:00,72.0,70.8,29.68,WSW,242,0.6,1.9,95,0.00,n/a,n/a,-99.99,Henriksen +1-Wire,2013-09-03 05:52:00,
2013-09-03 01:58:00,72.0,70.8,29.68,SSW,197,1.4,3.1,95,0.00,n/a,n/a,-99.99,Henriksen +1-Wire,2013-09-03 05:58:00,
2013-09-03 02:04:00,72.0,70.8,29.69,SSW,198,1.8,3.1,95,0.00,n/a,n/a,-99.99,Henriksen +1-Wire,2013-09-03 06:04:00,
2013-09-03 02:10:00,72.0,70.8,29.69,South,186,2.2,4.5,95,0.00,n/a,n/a,-99.99,Henriksen +1-Wire,2013-09-03 06:10:00,
2013-09-03 02:16:00,72.1,70.8,29.69,South,170,3.3,5.9,95,0.00,n/a,n/a,-99.99,Henriksen +1-Wire,2013-09-03 06:16:00,
2013-09-03 02:22:00,72.1,70.8,29.69,SSW,196,2.5,5.9,95,0.00,n/a,n/a,-99.99,Henriksen +1-Wire,2013-09-03 06:22:00,
2013-09-03 02:28:00,72.1,70.8,29.69,South,171,0.8,3.9,95,0.00,n/a,n/a,-99.99,Henriksen +1-Wire,2013-09-03 06:28:00,
2013-09-03 02:34:00,72.1,70.9,29.68,South,190,1.4,4.0,95,0.00,n/a,n/a,-99.99,Henriksen +1-Wire,2013-09-03 06:34:00,
2013-09-03 02:40:00,72.1,70.9,29.68,South,169,1.6,4.0,95,0.00,n/a,n/a,-99.99,Henriksen +1-Wire,2013-09-03 06:40:00,
2013-09-03 02:46:00,72.1,70.9,29.68,SSE,165,2.6,4.4,95,0.00,n/a,n/a,-99.99,Henriksen +1-Wire,2013-09-03 06:46:00,
2013-09-03 02:52:00,72.1,70.9,29.67,SSW,204,1.6,4.4,95,0.00,n/a,n/a,-99.99,Henriksen +1-Wire,2013-09-03 06:52:00,
2013-09-03 02:58:00,72.1,70.9,29.67,SSW,196,1.5,3.8,95,0.00,n/a,n/a,-99.99,Henriksen +1-Wire,2013-09-03 06:58:00,
2013-09-03 03:04:00,72.1,70.8,29.67,SSE,162,0.0,3.8,95,0.00,n/a,n/a,-99.99,Henriksen +1-Wire,2013-09-03 07:04:00,
2013-09-03 03:10:00,72.1,70.8,29.67,SSE,160,0.0,1.2,95,0.00,n/a,n/a,-99.99,Henriksen +1-Wire,2013-09-03 07:10:00,
2013-09-03 03:16:00,72.0,70.8,29.67,WSW,239,0.0,0.0,95,0.00,n/a,n/a,-99.99,Henriksen +1-Wire,2013-09-03 07:16:00,
2013-09-03 03:22:00,71.9,70.7,29.66,West,263,0.0,0.0,95,0.00,n/a,n/a,-99.99,Henriksen +1-Wire,2013-09-03 07:22:00,
2013-09-03 03:28:00,72.0,70.8,29.66,WNW,288,0.0,0.0,95,0.00,n/a,n/a,-99.99,Henriksen +1-Wire,2013-09-03 07:28:00,
2013-09-03 03:34:00,71.9,70.7,29.66,NNW,339,0.0,0.0,96,0.00,n/a,n/a,-99.99,Henriksen +1-Wire,2013-09-03 07:34:00,
2013-09-03 03:40:00,71.9,70.8,29.66,WSW,253,0.0,0.0,96,0.00,n/a,n/a,-99.99,Henriksen +1-Wire,2013-09-03 07:40:00,
2013-09-03 03:46:00,72.0,70.8,29.66,SW,216,0.0,0.0,96,0.00,n/a,n/a,-99.99,Henriksen +1-Wire,2013-09-03 07:46:00,
2013-09-03 03:52:00,72.0,70.7,29.67,SW,221,0.6,3.5,95,0.00,n/a,n/a,-99.99,Henriksen +1-Wire,2013-09-03 07:52:00,
2013-09-03 03:58:00,71.9,70.6,29.66,SSW,208,1.1,3.5,95,0.00,n/a,n/a,-99.99,Henriksen +1-Wire,2013-09-03 07:58:00,
2013-09-03 04:04:00,71.9,70.4,29.67,South,188,1.4,2.9,94,0.00,n/a,n/a,-99.99,Henriksen +1-Wire,2013-09-03 08:04:00,
2013-09-03 04:10:00,71.9,70.4,29.66,SSW,197,1.5,3.2,94,0.00,n/a,n/a,-99.99,Henriksen +1-Wire,2013-09-03 08:10:00,
2013-09-03 04:16:00,72.0,70.4,29.66,SSW,199,0.7,3.5,94,0.00,n/a,n/a,-99.99,Henriksen +1-Wire,2013-09-03 08:16:00,
2013-09-03 04:22:00,72.0,70.3,29.66,South,188,0.0,2.9,94,0.00,n/a,n/a,-99.99,Henriksen +1-Wire,2013-09-03 08:22:00,
2013-09-03 04:28:00,71.9,70.3,29.66,South,177,1.2,2.9,94,0.00,n/a,n/a,-99.99,Henriksen +1-Wire,2013-09-03 08:28:00,
2013-09-03 04:34:00,71.9,70.1,29.66,SSE,148,0.0,2.9,94,0.00,n/a,n/a,-99.99,Henriksen +1-Wire,2013-09-03 08:34:00,
2013-09-03 04:40:00,71.6,69.9,29.66,SSE,156,0.0,1.9,94,0.00,n/a,n/a,-99.99,Henriksen +1-Wire,2013-09-03 08:40:00,
2013-09-03 04:45:00,71.5,69.9,29.67,SSE,155,0.0,0.3,94,0.00,n/a,n/a,-99.99,Henriksen +1-Wire,2013-09-03 08:45:00,
2013-09-03 04:52:00,71.1,69.5,29.66,WNW,289,0.0,0.0,94,0.00,n/a,n/a,-99.99,Henriksen +1-Wire,2013-09-03 08:52:00,
2013-09-03 04:58:00,70.6,69.3,29.67,WNW,301,0.0,0.0,95,0.00,n/a,n/a,-99.99,Henriksen +1-Wire,2013-09-03 08:58:00,
2013-09-03 05:04:00,70.4,69.1,29.67,SE,132,0.0,0.0,95,0.00,n/a,n/a,-99.99,Henriksen +1-Wire,2013-09-03 09:04:00,
2013-09-03 05:10:00,70.1,68.9,29.67,ESE,120,0.0,0.0,95,0.00,n/a,n/a,-99.99,Henriksen +1-Wire,2013-09-03 09:10:00,
2013-09-03 05:16:00,69.9,68.7,29.68,SW,225,0.0,0.0,95,0.00,n/a,n/a,-99.99,Henriksen +1-Wire,2013-09-03 09:16:00,
2013-09-03 05:22:00,69.8,68.7,29.68,South,177,0.0,0.0,96,0.00,n/a,n/a,-99.99,Henriksen +1-Wire,2013-09-03 09:22:00,
2013-09-03 05:28:00,69.9,68.8,29.69,South,170,0.1,1.0,96,0.00,n/a,n/a,-99.99,Henriksen +1-Wire,2013-09-03 09:28:00,
2013-09-03 05:34:00,69.9,68.8,29.69,SSE,165,0.0,1.0,96,0.00,n/a,n/a,-99.99,Henriksen +1-Wire,2013-09-03 09:34:00,
2013-09-03 05:40:00,69.8,68.7,29.68,SSE,161,0.0,0.0,96,0.00,n/a,n/a,-99.99,Henriksen +1-Wire,2013-09-03 09:40:00,
2013-09-03 05:46:00,69.5,68.4,29.68,NNW,333,0.0,0.0,96,0.00,n/a,n/a,-99.99,Henriksen +1-Wire,2013-09-03 09:46:00,
2013-09-03 05:52:00,69.2,68.2,29.69,SSE,165,0.0,0.0,96,0.00,n/a,n/a,-99.99,Henriksen +1-Wire,2013-09-03 09:52:00,
2013-09-03 05:57:00,69.0,68.0,29.69,SSW,194,0.0,0.0,96,0.00,n/a,n/a,-99.99,Henriksen +1-Wire,2013-09-03 09:57:00,
2013-09-03 06:04:00,68.9,67.9,29.69,SSW,213,0.0,0.0,96,0.00,n/a,n/a,-99.99,Henriksen +1-Wire,2013-09-03 10:04:00,
2013-09-03 06:10:00,68.9,67.9,29.69,SSW,196,0.0,0.0,96,0.00,n/a,n/a,-99.99,Henriksen +1-Wire,2013-09-03 10:10:00,
2013-09-03 06:15:00,68.8,67.9,29.69,NNW,333,0.0,0.0,96,0.00,n/a,n/a,-99.99,Henriksen +1-Wire,2013-09-03 10:15:00,
2013-09-03 06:22:00,69.0,68.0,29.69,SSW,196,0.0,0.0,96,0.00,n/a,n/a,-99.99,Henriksen +1-Wire,2013-09-03 10:22:00,
2013-09-03 06:28:00,69.1,68.2,29.70,SSE,167,0.0,0.0,97,0.00,n/a,n/a,-99.99,Henriksen +1-Wire,2013-09-03 10:28:00,
2013-09-03 06:34:00,69.2,68.4,29.70,SE,140,0.0,0.0,97,0.00,n/a,n/a,-99.99,Henriksen +1-Wire,2013-09-03 10:34:00,
2013-09-03 06:40:00,69.5,68.7,29.70,SSE,157,0.0,0.0,97,0.00,n/a,n/a,-99.99,Henriksen +1-Wire,2013-09-03 10:40:00,
2013-09-03 06:46:00,69.7,68.8,29.70,ESE,105,0.0,0.0,97,0.00,n/a,n/a,-99.99,Henriksen +1-Wire,2013-09-03 10:46:00,
2013-09-03 06:52:00,69.7,68.9,29.70,WNW,283,0.0,0.0,97,0.00,n/a,n/a,-99.99,Henriksen +1-Wire,2013-09-03 10:52:00,
2013-09-03 06:58:00,69.8,68.9,29.70,West,262,0.0,0.0,97,0.00,n/a,n/a,-99.99,Henriksen +1-Wire,2013-09-03 10:58:00,
2013-09-03 07:03:00,69.9,69.0,29.70,SSW,195,0.0,0.0,97,0.00,n/a,n/a,-99.99,Henriksen +1-Wire,2013-09-03 11:03:00,
2013-09-03 07:10:00,69.9,69.0,29.70,South,182,1.0,3.2,97,0.00,n/a,n/a,-99.99,Henriksen +1-Wire,2013-09-03 11:10:00,
2013-09-03 07:16:00,69.9,68.9,29.70,South,183,1.6,3.2,96,0.00,n/a,n/a,-99.99,Henriksen +1-Wire,2013-09-03 11:16:00,
2013-09-03 07:21:00,69.9,68.9,29.71,SSE,155,2.2,3.4,96,0.00,n/a,n/a,-99.99,Henriksen +1-Wire,2013-09-03 11:21:00,
2013-09-03 07:27:00,70.0,68.9,29.71,SSE,164,2.1,4.4,96,0.00,n/a,n/a,-99.99,Henriksen +1-Wire,2013-09-03 11:27:00,
2013-09-03 07:34:00,70.2,69.0,29.71,SSE,161,2.8,6.7,96,0.00,n/a,n/a,-99.99,Henriksen +1-Wire,2013-09-03 11:34:00,
2013-09-03 07:40:00,70.3,69.0,29.71,South,185,2.0,6.7,95,0.00,n/a,n/a,-99.99,Henriksen +1-Wire,2013-09-03 11:40:00,
2013-09-03 07:46:00,70.5,69.1,29.71,SSW,205,2.0,4.0,95,0.00,n/a,n/a,-99.99,Henriksen +1-Wire,2013-09-03 11:46:00,
2013-09-03 07:52:00,70.5,69.1,29.71,West,270,0.0,3.5,95,0.00,n/a,n/a,-99.99,Henriksen +1-Wire,2013-09-03 11:52:00,
2013-09-03 07:58:00,70.7,69.2,29.72,South,189,2.9,5.4,94,0.00,n/a,n/a,-99.99,Henriksen +1-Wire,2013-09-03 11:58:00,
2013-09-03 08:04:00,71.0,69.2,29.72,SSE,161,3.3,5.8,93,0.00,n/a,n/a,-99.99,Henriksen +1-Wire,2013-09-03 12:04:00,
2013-09-03 08:10:00,71.5,69.3,29.72,SSE,167,2.2,5.8,92,0.00,n/a,n/a,-99.99,Henriksen +1-Wire,2013-09-03 12:10:00,
2013-09-03 08:16:00,71.6,69.3,29.73,SSE,161,4.9,7.4,92,0.00,n/a,n/a,-99.99,Henriksen +1-Wire,2013-09-03 12:16:00,
2013-09-03 08:22:00,71.6,69.0,29.72,South,180,4.5,7.4,91,0.00,n/a,n/a,-99.99,Henriksen +1-Wire,2013-09-03 12:22:00,
2013-09-03 08:28:00,71.8,68.8,29.72,SSE,163,2.0,6.7,90,0.00,n/a,n/a,-99.99,Henriksen +1-Wire,2013-09-03 12:28:00,
2013-09-03 08:34:00,72.0,68.7,29.73,SSE,162,5.2,7.7,89,0.00,n/a,n/a,-99.99,Henriksen +1-Wire,2013-09-03 12:34:00,
2013-09-03 08:40:00,72.2,68.7,29.73,SSE,164,2.7,8.1,88,0.00,n/a,n/a,-99.99,Henriksen +1-Wire,2013-09-03 12:40:00,
2013-09-03 08:46:00,72.4,68.6,29.73,South,189,3.1,5.6,87,0.00,n/a,n/a,-99.99,Henriksen +1-Wire,2013-09-03 12:46:00,
2013-09-03 08:52:00,72.5,68.3,29.73,South,189,3.2,5.8,86,0.00,n/a,n/a,-99.99,Henriksen +1-Wire,2013-09-03 12:52:00,
2013-09-03 08:58:00,72.7,68.5,29.73,SSE,166,3.6,6.4,86,0.00,n/a,n/a,-99.99,Henriksen +1-Wire,2013-09-03 12:58:00,
2013-09-03 09:04:00,73.1,68.4,29.73,SSW,208,2.6,6.4,85,0.00,n/a,n/a,-99.99,Henriksen +1-Wire,2013-09-03 13:04:00,
2013-09-03 09:10:00,73.3,68.1,29.73,SSW,198,2.9,5.0,83,0.00,n/a,n/a,-99.99,Henriksen +1-Wire,2013-09-03 13:10:00,
2013-09-03 09:16:00,73.4,68.1,29.73,SSW,200,3.1,5.5,83,0.00,n/a,n/a,-99.99,Henriksen +1-Wire,2013-09-03 13:16:00,
2013-09-03 09:22:00,73.7,68.0,29.73,South,179,2.9,6.0,82,0.00,n/a,n/a,-99.99,Henriksen +1-Wire,2013-09-03 13:22:00,
2013-09-03 09:28:00,73.8,68.1,29.72,SSE,164,1.8,6.0,82,0.00,n/a,n/a,-99.99,Henriksen +1-Wire,2013-09-03 13:28:00,
2013-09-03 09:34:00,74.1,67.9,29.73,SSW,204,2.0,3.8,80,0.00,n/a,n/a,-99.99,Henriksen +1-Wire,2013-09-03 13:34:00,
2013-09-03 09:40:00,74.4,67.9,29.73,SSW,196,1.5,4.5,80,0.00,n/a,n/a,-99.99,Henriksen +1-Wire,2013-09-03 13:40:00,
2013-09-03 09:46:00,74.5,68.0,29.73,SSW,198,2.1,5.0,79,0.00,n/a,n/a,-99.99,Henriksen +1-Wire,2013-09-03 13:46:00,
2013-09-03 09:52:00,74.6,67.1,29.73,South,173,2.4,5.0,77,0.00,n/a,n/a,-99.99,Henriksen +1-Wire,2013-09-03 13:52:00,
2013-09-03 09:58:00,74.7,67.3,29.73,South,190,1.0,4.2,77,0.00,n/a,n/a,-99.99,Henriksen +1-Wire,2013-09-03 13:58:00,
2013-09-03 10:04:00,74.9,67.5,29.73,NNW,331,1.1,3.6,77,0.00,n/a,n/a,-99.99,Henriksen +1-Wire,2013-09-03 14:04:00,
2013-09-03 10:10:00,75.4,68.0,29.73,SSE,155,2.5,3.8,77,0.00,n/a,n/a,-99.99,Henriksen +1-Wire,2013-09-03 14:10:00,
2013-09-03 10:16:00,75.4,64.7,29.72,South,187,1.1,3.8,68,0.00,n/a,n/a,-99.99,Henriksen +1-Wire,2013-09-03 14:16:00,
2013-09-03 10:22:00,75.3,67.1,29.73,SSW,201,0.9,3.5,75,0.00,n/a,n/a,-99.99,Henriksen +1-Wire,2013-09-03 14:22:00,
2013-09-03 10:28:00,75.9,68.0,29.73,ESE,108,1.3,3.2,76,0.00,n/a,n/a,-99.99,Henriksen +1-Wire,2013-09-03 14:28:00,
2013-09-03 10:34:00,76.1,67.7,29.73,SSE,168,2.1,3.5,74,0.00,n/a,n/a,-99.99,Henriksen +1-Wire,2013-09-03 14:34:00,
2013-09-03 10:40:00,76.0,67.4,29.72,SSE,161,2.4,3.8,74,0.00,n/a,n/a,-99.99,Henriksen +1-Wire,2013-09-03 14:40:00,
2013-09-03 10:46:00,76.1,67.1,29.72,SSE,155,1.9,3.8,73,0.00,n/a,n/a,-99.99,Henriksen +1-Wire,2013-09-03 14:46:00,
2013-09-03 10:52:00,76.3,67.5,29.72,SSE,155,2.2,3.4,73,0.00,n/a,n/a,-99.99,Henriksen +1-Wire,2013-09-03 14:52:00,
2013-09-03 10:58:00,76.3,67.7,29.72,SSE,161,1.9,3.3,74,0.00,n/a,n/a,-99.99,Henriksen +1-Wire,2013-09-03 14:58:00,
2013-09-03 11:04:00,76.6,68.3,29.72,ESE,111,2.5,4.1,75,0.00,n/a,n/a,-99.99,Henriksen +1-Wire,2013-09-03 15:04:00,
2013-09-03 11:10:00,76.8,68.2,29.72,ESE,115,2.3,4.2,74,0.00,n/a,n/a,-99.99,Henriksen +1-Wire,2013-09-03 15:10:00,
2013-09-03 11:16:00,77.3,68.5,29.72,ESE,107,2.4,4.1,73,0.00,n/a,n/a,-99.99,Henriksen +1-Wire,2013-09-03 15:16:00,
2013-09-03 11:22:00,77.1,68.2,29.71,SSW,202,2.1,4.1,73,0.00,n/a,n/a,-99.99,Henriksen +1-Wire,2013-09-03 15:22:00,
2013-09-03 11:28:00,77.0,67.4,29.71,SSW,208,1.9,4.1,71,0.00,n/a,n/a,-99.99,Henriksen +1-Wire,2013-09-03 15:28:00,
2013-09-03 11:34:00,77.1,67.8,29.71,WSW,250,1.6,3.8,72,0.00,n/a,n/a,-99.99,Henriksen +1-Wire,2013-09-03 15:34:00,
2013-09-03 11:40:00,78.6,68.9,29.71,WSW,245,3.4,5.2,71,0.00,n/a,n/a,-99.99,Henriksen +1-Wire,2013-09-03 15:40:00,
2013-09-03 11:46:00,79.5,68.8,29.71,ESE,106,2.3,5.2,69,0.00,n/a,n/a,-99.99,Henriksen +1-Wire,2013-09-03 15:46:00,
2013-09-03 11:52:00,80.2,68.6,29.71,SSW,203,2.6,5.7,67,0.00,n/a,n/a,-99.99,Henriksen +1-Wire,2013-09-03 15:52:00,
2013-09-03 11:58:00,80.3,68.7,29.71,SSE,160,2.5,5.7,67,0.00,n/a,n/a,-99.99,Henriksen +1-Wire,2013-09-03 15:58:00,
2013-09-03 12:04:00,80.0,68.1,29.70,SSW,208,2.3,6.7,66,0.00,n/a,n/a,-99.99,Henriksen +1-Wire,2013-09-03 16:04:00,
2013-09-03 12:10:00,80.1,67.6,29.70,South,191,2.6,6.5,65,0.00,n/a,n/a,-99.99,Henriksen +1-Wire,2013-09-03 16:10:00,
2013-09-03 12:16:00,79.9,71.8,29.70,WSW,242,3.0,5.7,75,0.00,n/a,n/a,-99.99,Henriksen +1-Wire,2013-09-03 16:16:00,
2013-09-03 12:22:00,80.6,68.8,29.70,ESE,103,3.8,6.0,66,0.00,n/a,n/a,-99.99,Henriksen +1-Wire,2013-09-03 16:22:00,
2013-09-03 12:28:00,80.5,67.6,29.70,SSW,201,2.8,6.0,64,0.00,n/a,n/a,-99.99,Henriksen +1-Wire,2013-09-03 16:28:00,
2013-09-03 12:34:00,81.2,67.8,29.70,South,187,4.6,7.8,63,0.00,n/a,n/a,-99.99,Henriksen +1-Wire,2013-09-03 16:34:00,
2013-09-03 12:40:00,81.3,67.3,29.70,SSE,161,3.3,7.8,61,0.00,n/a,n/a,-99.99,Henriksen +1-Wire,2013-09-03 16:40:00,
2013-09-03 12:46:00,80.5,67.3,29.70,South,188,3.3,6.5,63,0.00,n/a,n/a,-99.99,Henriksen +1-Wire,2013-09-03 16:46:00,
2013-09-03 12:52:00,80.2,67.6,29.70,SSW,200,2.5,5.4,65,0.00,n/a,n/a,-99.99,Henriksen +1-Wire,2013-09-03 16:52:00,
2013-09-03 12:58:00,79.9,67.5,29.70,South,189,2.6,6.3,65,0.00,n/a,n/a,-99.99,Henriksen +1-Wire,2013-09-03 16:58:00,
2013-09-03 13:04:00,79.4,67.2,29.70,SSE,161,3.2,6.7,65,0.00,n/a,n/a,-99.99,Henriksen +1-Wire,2013-09-03 17:04:00,
2013-09-03 13:10:00,79.1,67.8,29.70,SSE,159,2.8,5.5,67,0.00,n/a,n/a,-99.99,Henriksen +1-Wire,2013-09-03 17:10:00,
2013-09-03 13:16:00,79.4,67.6,29.69,SSE,161,3.4,6.0,66,0.00,n/a,n/a,-99.99,Henriksen +1-Wire,2013-09-03 17:16:00,
2013-09-03 13:22:00,79.3,68.0,29.70,SSE,159,3.5,6.0,68,0.00,n/a,n/a,-99.99,Henriksen +1-Wire,2013-09-03 17:22:00,
2013-09-03 13:28:00,79.3,68.2,29.70,SSE,166,2.7,4.8,68,0.00,n/a,n/a,-99.99,Henriksen +1-Wire,2013-09-03 17:28:00,
2013-09-03 13:34:00,79.4,68.2,29.70,SSE,153,3.3,4.8,68,0.00,n/a,n/a,-99.99,Henriksen +1-Wire,2013-09-03 17:34:00,
2013-09-03 13:40:00,79.3,67.9,29.70,SSE,163,2.4,5.2,67,0.00,n/a,n/a,-99.99,Henriksen +1-Wire,2013-09-03 17:40:00,
2013-09-03 13:46:00,79.1,68.0,29.70,SSE,166,2.1,5.2,68,0.00,n/a,n/a,-99.99,Henriksen +1-Wire,2013-09-03 17:46:00,
2013-09-03 13:52:00,79.1,68.5,29.70,SSE,163,2.4,4.5,69,0.00,n/a,n/a,-99.99,Henriksen +1-Wire,2013-09-03 17:52:00,
2013-09-03 13:57:00,79.5,68.7,29.69,South,174,2.3,7.1,69,0.00,n/a,n/a,-99.99,Henriksen +1-Wire,2013-09-03 17:57:00,
2013-09-03 14:04:00,79.2,68.4,29.69,SSW,193,3.3,4.9,69,0.00,n/a,n/a,-99.99,Henriksen +1-Wire,2013-09-03 18:04:00,
2013-09-03 14:10:00,78.8,68.3,29.69,SSE,159,3.2,6.1,69,0.00,n/a,n/a,-99.99,Henriksen +1-Wire,2013-09-03 18:10:00,
2013-09-03 14:16:00,78.4,67.9,29.69,SSE,154,2.1,6.4,69,0.00,n/a,n/a,-99.99,Henriksen +1-Wire,2013-09-03 18:16:00,
2013-09-03 14:22:00,78.5,68.0,29.69,South,180,3.6,6.3,69,0.00,n/a,n/a,-99.99,Henriksen +1-Wire,2013-09-03 18:22:00,
2013-09-03 14:28:00,78.7,68.0,29.69,SSE,160,3.8,5.4,69,0.00,n/a,n/a,-99.99,Henriksen +1-Wire,2013-09-03 18:28:00,
2013-09-03 14:34:00,78.9,68.2,29.69,SSE,165,3.6,7.1,69,0.00,n/a,n/a,-99.99,Henriksen +1-Wire,2013-09-03 18:34:00,
2013-09-03 14:40:00,79.4,68.6,29.69,South,170,4.3,7.4,69,0.00,n/a,n/a,-99.99,Henriksen +1-Wire,2013-09-03 18:40:00,
2013-09-03 14:46:00,79.8,68.6,29.68,SSE,158,4.3,8.0,68,0.00,n/a,n/a,-99.99,Henriksen +1-Wire,2013-09-03 18:46:00,
2013-09-03 14:51:00,79.8,68.6,29.69,SE,135,3.7,8.6,68,0.00,n/a,n/a,-99.99,Henriksen +1-Wire,2013-09-03 18:51:00,
2013-09-03 14:58:00,79.7,68.5,29.68,SE,127,3.9,6.9,68,0.00,n/a,n/a,-99.99,Henriksen +1-Wire,2013-09-03 18:58:00,
2013-09-03 15:04:00,79.5,68.7,29.68,ESE,120,4.3,7.9,69,0.00,n/a,n/a,-99.99,Henriksen +1-Wire,2013-09-03 19:04:00,
2013-09-03 15:10:00,79.4,68.9,29.68,SSE,157,3.0,7.9,69,0.00,n/a,n/a,-99.99,Henriksen +1-Wire,2013-09-03 19:10:00,
2013-09-03 15:16:00,79.1,69.2,29.68,South,184,4.1,7.7,71,0.00,n/a,n/a,-99.99,Henriksen +1-Wire,2013-09-03 19:16:00,
2013-09-03 15:22:00,79.2,69.5,29.68,SSE,153,4.5,7.7,71,0.00,n/a,n/a,-99.99,Henriksen +1-Wire,2013-09-03 19:22:00,
2013-09-03 15:28:00,79.7,69.3,29.68,SSE,160,3.4,8.6,70,0.00,n/a,n/a,-99.99,Henriksen +1-Wire,2013-09-03 19:28:00,
2013-09-03 15:34:00,79.9,70.0,29.67,South,172,3.4,7.0,71,0.00,n/a,n/a,-99.99,Henriksen +1-Wire,2013-09-03 19:34:00,
2013-09-03 15:40:00,79.2,69.9,29.68,SSE,162,5.3,10.2,72,0.00,n/a,n/a,-99.99,Henriksen +1-Wire,2013-09-03 19:40:00,
2013-09-03 15:46:00,78.9,70.1,29.68,SSE,162,4.6,10.2,73,0.00,n/a,n/a,-99.99,Henriksen +1-Wire,2013-09-03 19:46:00,
2013-09-03 15:52:00,79.0,70.2,29.68,SSE,151,3.9,7.2,73,0.00,n/a,n/a,-99.99,Henriksen +1-Wire,2013-09-03 19:52:00,
2013-09-03 15:58:00,78.8,70.4,29.68,SSE,157,3.1,6.4,74,0.00,n/a,n/a,-99.99,Henriksen +1-Wire,2013-09-03 19:58:00,
2013-09-03 16:04:00,78.8,70.2,29.67,SSE,162,5.0,8.3,74,0.00,n/a,n/a,-99.99,Henriksen +1-Wire,2013-09-03 20:04:00,
2013-09-03 16:09:00,78.8,70.5,29.67,South,184,6.3,9.7,75,0.00,n/a,n/a,-99.99,Henriksen +1-Wire,2013-09-03 20:09:00,
2013-09-03 16:15:00,78.5,70.2,29.67,South,189,3.9,10.3,75,0.00,n/a,n/a,-99.99,Henriksen +1-Wire,2013-09-03 20:15:00,
2013-09-03 16:22:00,78.5,70.5,29.67,SSE,163,4.8,10.3,76,0.00,n/a,n/a,-99.99,Henriksen +1-Wire,2013-09-03 20:22:00,
2013-09-03 16:28:00,78.1,70.5,29.67,SSE,166,4.4,8.1,77,0.00,n/a,n/a,-99.99,Henriksen +1-Wire,2013-09-03 20:28:00,
2013-09-03 16:34:00,77.9,70.4,29.67,WSW,248,2.9,6.4,77,0.00,n/a,n/a,-99.99,Henriksen +1-Wire,2013-09-03 20:34:00,
2013-09-03 16:40:00,77.6,70.2,29.68,South,190,3.8,9.2,77,0.00,n/a,n/a,-99.99,Henriksen +1-Wire,2013-09-03 20:40:00,
2013-09-03 16:46:00,77.1,70.3,29.69,South,179,4.7,9.2,79,0.05,n/a,n/a,-99.99,Henriksen +1-Wire,2013-09-03 20:46:00,
2013-09-03 16:52:00,75.1,70.8,29.68,SSE,162,3.5,11.2,86,0.07,n/a,n/a,-99.99,Henriksen +1-Wire,2013-09-03 20:52:00,
2013-09-03 16:58:00,74.3,70.7,29.68,South,169,2.7,11.2,88,0.07,n/a,n/a,-99.99,Henriksen +1-Wire,2013-09-03 20:58:00,
2013-09-03 17:04:00,74.0,71.0,29.68,SSE,164,2.3,5.2,90,0.07,n/a,n/a,-99.99,Henriksen +1-Wire,2013-09-03 21:04:00,
2013-09-03 17:10:00,73.9,71.1,29.68,SSE,161,2.7,4.5,90,0.07,n/a,n/a,-99.99,Henriksen +1-Wire,2013-09-03 21:10:00,
2013-09-03 17:16:00,74.0,71.5,29.69,South,190,0.7,5.5,91,0.07,n/a,n/a,-99.99,Henriksen +1-Wire,2013-09-03 21:16:00,
2013-09-03 17:22:00,73.9,71.4,29.69,WSW,239,2.4,4.0,91,0.07,n/a,n/a,-99.99,Henriksen +1-Wire,2013-09-03 21:22:00,
2013-09-03 17:28:00,73.9,71.4,29.69,SSW,203,1.7,4.0,91,0.07,n/a,n/a,-99.99,Henriksen +1-Wire,2013-09-03 21:28:00,
2013-09-03 17:34:00,74.0,71.4,29.69,SW,235,0.1,3.6,91,0.07,n/a,n/a,-99.99,Henriksen +1-Wire,2013-09-03 21:34:00,
2013-09-03 17:40:00,73.8,70.6,29.69,SSW,205,0.4,5.8,89,0.07,n/a,n/a,-99.99,Henriksen +1-Wire,2013-09-03 21:40:00,
2013-09-03 17:46:00,73.4,70.2,29.69,WNW,291,0.6,5.8,89,0.02,n/a,n/a,-99.99,Henriksen +1-Wire,2013-09-03 21:46:00,
2013-09-03 17:52:00,73.0,69.8,29.69,NW,308,2.4,3.4,89,0.00,n/a,n/a,-99.99,Henriksen +1-Wire,2013-09-03 21:52:00,
2013-09-03 17:58:00,72.5,68.7,29.69,WNW,297,1.6,5.2,87,0.00,n/a,n/a,-99.99,Henriksen +1-Wire,2013-09-03 21:58:00,
2013-09-03 18:04:00,72.0,67.8,29.69,NW,307,2.3,5.2,86,0.00,n/a,n/a,-99.99,Henriksen +1-Wire,2013-09-03 22:04:00,
2013-09-03 18:10:00,71.9,67.4,29.69,WNW,291,1.5,4.9,85,0.00,n/a,n/a,-99.99,Henriksen +1-Wire,2013-09-03 22:10:00,
2013-09-03 18:16:00,71.8,67.5,29.69,WSW,248,2.3,4.8,86,0.00,n/a,n/a,-99.99,Henriksen +1-Wire,2013-09-03 22:16:00,
2013-09-03 18:22:00,71.5,66.9,29.69,WSW,247,1.6,4.8,85,0.00,n/a,n/a,-99.99,Henriksen +1-Wire,2013-09-03 22:22:00,
2013-09-03 18:28:00,71.1,66.5,29.69,WNW,294,1.8,3.5,85,0.00,n/a,n/a,-99.99,Henriksen +1-Wire,2013-09-03 22:28:00,
2013-09-03 18:34:00,71.0,66.4,29.69,WNW,297,1.2,3.5,85,0.00,n/a,n/a,-99.99,Henriksen +1-Wire,2013-09-03 22:34:00,
2013-09-03 18:40:00,71.0,66.2,29.69,WNW,295,0.3,3.2,84,0.00,n/a,n/a,-99.99,Henriksen +1-Wire,2013-09-03 22:40:00,
2013-09-03 18:46:00,70.7,67.0,29.70,WNW,296,0.0,1.9,88,0.00,n/a,n/a,-99.99,Henriksen +1-Wire,2013-09-03 22:46:00,
2013-09-03 18:52:00,70.4,66.6,29.70,NW,319,0.5,1.9,87,0.00,n/a,n/a,-99.99,Henriksen +1-Wire,2013-09-03 22:52:00,
2013-09-03 18:58:00,70.5,66.1,29.70,WNW,295,0.0,1.9,85,0.00,n/a,n/a,-99.99,Henriksen +1-Wire,2013-09-03 22:58:00,
2013-09-03 19:04:00,70.3,66.2,29.70,NNW,329,0.0,3.4,86,0.00,n/a,n/a,-99.99,Henriksen +1-Wire,2013-09-03 23:04:00,
2013-09-03 19:10:00,70.4,65.5,29.71,SSW,199,0.5,2.9,84,0.00,n/a,n/a,-99.99,Henriksen +1-Wire,2013-09-03 23:10:00,
2013-09-03 19:16:00,70.5,65.7,29.71,South,191,0.6,2.6,84,0.00,n/a,n/a,-99.99,Henriksen +1-Wire,2013-09-03 23:16:00,
2013-09-03 19:22:00,70.5,65.5,29.71,SSE,158,1.2,2.2,84,0.00,n/a,n/a,-99.99,Henriksen +1-Wire,2013-09-03 23:22:00,
2013-09-03 19:28:00,70.3,65.7,29.71,South,189,0.0,2.0,85,0.00,n/a,n/a,-99.99,Henriksen +1-Wire,2013-09-03 23:28:00,
2013-09-03 19:34:00,70.1,65.8,29.71,WSW,246,0.0,1.0,86,0.00,n/a,n/a,-99.99,Henriksen +1-Wire,2013-09-03 23:34:00,
2013-09-03 19:40:00,69.5,65.9,29.72,West,265,0.0,0.0,88,0.00,n/a,n/a,-99.99,Henriksen +1-Wire,2013-09-03 23:40:00,
2013-09-03 19:46:00,69.9,65.6,29.72,South,187,0.6,1.6,86,0.00,n/a,n/a,-99.99,Henriksen +1-Wire,2013-09-03 23:46:00,
2013-09-03 19:52:00,70.5,65.5,29.72,SW,230,0.0,2.2,84,0.00,n/a,n/a,-99.99,Henriksen +1-Wire,2013-09-03 23:52:00,
2013-09-03 19:58:00,70.5,65.6,29.72,SSW,209,0.5,1.0,84,0.00,n/a,n/a,-99.99,Henriksen +1-Wire,2013-09-03 23:58:00,
2013-09-03 20:04:00,70.1,64.9,29.72,South,189,1.0,3.9,83,0.00,n/a,n/a,-99.99,Henriksen +1-Wire,2013-09-04 00:04:00,
2013-09-03 20:10:00,69.8,64.7,29.72,South,190,0.0,3.9,83,0.00,n/a,n/a,-99.99,Henriksen +1-Wire,2013-09-04 00:10:00,
2013-09-03 20:16:00,69.6,64.5,29.72,SSE,164,0.0,0.0,83,0.00,n/a,n/a,-99.99,Henriksen +1-Wire,2013-09-04 00:16:00,
2013-09-03 20:22:00,69.6,64.0,29.73,WSW,242,0.5,1.9,82,0.00,n/a,n/a,-99.99,Henriksen +1-Wire,2013-09-04 00:22:00,
2013-09-03 20:28:00,68.8,63.4,29.73,WSW,241,1.1,2.2,82,0.00,n/a,n/a,-99.99,Henriksen +1-Wire,2013-09-04 00:28:00,
2013-09-03 20:34:00,69.2,62.9,29.73,WSW,254,1.0,5.2,80,0.00,n/a,n/a,-99.99,Henriksen +1-Wire,2013-09-04 00:34:00,
2013-09-03 20:40:00,69.0,62.3,29.74,WSW,244,1.6,5.2,78,0.00,n/a,n/a,-99.99,Henriksen +1-Wire,2013-09-04 00:40:00,
2013-09-03 20:46:00,69.3,62.1,29.74,WSW,243,0.2,3.6,77,0.00,n/a,n/a,-99.99,Henriksen +1-Wire,2013-09-04 00:46:00,
2013-09-03 20:52:00,69.0,62.2,29.74,ESE,120,0.2,1.6,78,0.00,n/a,n/a,-99.99,Henriksen +1-Wire,2013-09-04 00:52:00,
2013-09-03 20:58:00,68.2,62.3,29.74,ESE,115,0.2,1.3,81,0.00,n/a,n/a,-99.99,Henriksen +1-Wire,2013-09-04 00:58:00,
2013-09-03 21:04:00,67.5,62.4,29.74,East,99,0.9,1.3,83,0.00,n/a,n/a,-99.99,Henriksen +1-Wire,2013-09-04 01:04:00,
2013-09-03 21:10:00,66.6,62.4,29.75,East,101,0.7,1.6,86,0.00,n/a,n/a,-99.99,Henriksen +1-Wire,2013-09-04 01:10:00,
2013-09-03 21:16:00,66.3,62.5,29.75,SSE,147,0.0,1.6,87,0.00,n/a,n/a,-99.99,Henriksen +1-Wire,2013-09-04 01:16:00,
2013-09-03 21:22:00,65.6,62.6,29.75,SSW,201,1.2,2.9,89,0.00,n/a,n/a,-99.99,Henriksen +1-Wire,2013-09-04 01:22:00,
2013-09-03 21:28:00,65.9,61.7,29.75,South,187,1.6,3.2,86,0.00,n/a,n/a,-99.99,Henriksen +1-Wire,2013-09-04 01:28:00,
2013-09-03 21:34:00,66.1,61.2,29.75,SSE,164,2.0,4.5,84,0.00,n/a,n/a,-99.99,Henriksen +1-Wire,2013-09-04 01:34:00,
2013-09-03 21:40:00,66.7,60.4,29.75,South,189,0.9,4.5,79,0.00,n/a,n/a,-99.99,Henriksen +1-Wire,2013-09-04 01:40:00,
2013-09-03 21:46:00,66.6,60.2,29.75,SSE,161,1.6,3.5,79,0.00,n/a,n/a,-99.99,Henriksen +1-Wire,2013-09-04 01:46:00,
2013-09-03 21:52:00,66.8,59.4,29.75,SSW,198,0.9,3.3,76,0.00,n/a,n/a,-99.99,Henriksen +1-Wire,2013-09-04 01:52:00,
2013-09-03 21:58:00,66.8,59.1,29.76,South,191,2.7,4.5,76,0.00,n/a,n/a,-99.99,Henriksen +1-Wire,2013-09-04 01:58:00,
2013-09-03 22:04:00,66.7,58.7,29.76,SSE,165,2.4,4.5,75,0.00,n/a,n/a,-99.99,Henriksen +1-Wire,2013-09-04 02:04:00,
2013-09-03 22:10:00,66.6,58.7,29.76,South,170,2.2,4.4,75,0.00,n/a,n/a,-99.99,Henriksen +1-Wire,2013-09-04 02:10:00,
2013-09-03 22:16:00,66.4,58.8,29.76,SSE,153,1.8,3.8,76,0.00,n/a,n/a,-99.99,Henriksen +1-Wire,2013-09-04 02:16:00,
2013-09-03 22:22:00,66.1,58.9,29.76,ESE,123,1.8,3.4,77,0.00,n/a,n/a,-99.99,Henriksen +1-Wire,2013-09-04 02:22:00,
2013-09-03 22:28:00,65.5,59.0,29.76,SE,128,1.2,2.9,79,0.00,n/a,n/a,-99.99,Henriksen +1-Wire,2013-09-04 02:28:00,
2013-09-03 22:34:00,65.1,59.2,29.76,SSE,151,1.1,2.0,80,0.00,n/a,n/a,-99.99,Henriksen +1-Wire,2013-09-04 02:34:00,
2013-09-03 22:40:00,64.9,58.9,29.76,SSE,159,1.8,2.6,80,0.00,n/a,n/a,-99.99,Henriksen +1-Wire,2013-09-04 02:40:00,
2013-09-03 22:46:00,65.1,58.7,29.76,SSE,162,1.7,4.2,79,0.00,n/a,n/a,-99.99,Henriksen +1-Wire,2013-09-04 02:46:00,
2013-09-03 22:52:00,65.2,58.7,29.77,South,182,1.5,3.6,79,0.00,n/a,n/a,-99.99,Henriksen +1-Wire,2013-09-04 02:52:00,
2013-09-03 22:58:00,65.0,58.6,29.76,South,185,1.6,2.9,79,0.00,n/a,n/a,-99.99,Henriksen +1-Wire,2013-09-04 02:58:00,
2013-09-03 23:04:00,64.6,58.5,29.76,SSE,168,1.8,4.5,80,0.00,n/a,n/a,-99.99,Henriksen +1-Wire,2013-09-04 03:04:00,
2013-09-03 23:10:00,64.3,58.5,29.76,South,180,2.1,3.1,81,0.00,n/a,n/a,-99.99,Henriksen +1-Wire,2013-09-04 03:10:00,
2013-09-03 23:16:00,64.0,58.3,29.76,South,172,1.6,3.1,81,0.00,n/a,n/a,-99.99,Henriksen +1-Wire,2013-09-04 03:16:00,
2013-09-03 23:22:00,64.0,58.2,29.76,SSE,164,2.0,2.9,81,0.00,n/a,n/a,-99.99,Henriksen +1-Wire,2013-09-04 03:22:00,
2013-09-03 23:28:00,63.7,58.4,29.76,SSE,159,0.5,2.9,82,0.00,n/a,n/a,-99.99,Henriksen +1-Wire,2013-09-04 03:28:00,
2013-09-03 23:34:00,63.6,58.1,29.76,ESE,111,1.0,2.3,82,0.00,n/a,n/a,-99.99,Henriksen +1-Wire,2013-09-04 03:34:00,
2013-09-03 23:40:00,63.1,58.1,29.76,ESE,110,0.8,2.3,83,0.00,n/a,n/a,-99.99,Henriksen +1-Wire,2013-09-04 03:40:00,
2013-09-03 23:46:00,62.9,58.0,29.77,ESE,105,0.6,2.2,84,0.00,n/a,n/a,-99.99,Henriksen +1-Wire,2013-09-04 03:46:00,
2013-09-03 23:52:00,62.3,58.0,29.76,NW,312,0.4,1.6,85,0.00,n/a,n/a,-99.99,Henriksen +1-Wire,2013-09-04 03:52:00,
2013-09-03 23:58:00,62.0,58.2,29.76,SE,125,1.5,2.7,87,0.00,n/a,n/a,-99.99,Henriksen +1-Wire,2013-09-04 03:58:00,